Time;durP1;ratioP1;P1;durP2;ratioP2;P2;SDS_P1;SDS_P2;PMS_P1;PMS_P2;Temp;Humidity;BMP_temperature;BMP_pressure;BME280_temperature;BME280_humidity;BME280_pressure;Samples;Min_cycle;Max_cycle;Signal;HPM_P1;HPM_P2
2022/10/17 00:01:55;;;;;;;3.10;1.85;;;16.00;99.90;;;;;;7393102;19;20178;-72
2022/10/17 00:04:21;;;;;;;2.53;1.63;;;16.10;99.90;;;;;;7390109;19;20652;-73
2022/10/17 00:06:47;;;;;;;3.17;2.00;;;16.20;99.90;;;;;;7388131;19;20943;-72
2022/10/17 00:09:13;;;;;;;4.60;1.80;;;16.10;99.90;;;;;;7392300;19;20126;-72
2022/10/17 00:11:38;;;;;;;2.50;1.83;;;16.20;99.90;;;;;;7390316;19;20600;-72
2022/10/17 00:14:04;;;;;;;3.95;1.98;;;16.30;99.90;;;;;;7395485;19;20515;-73
2022/10/17 00:16:35;;;;;;;3.72;1.90;;;16.30;99.90;;;;;;7392691;19;20488;-71
2022/10/17 00:19:01;;;;;;;2.95;1.77;;;16.40;99.90;;;;;;7391689;19;20135;-72
2022/10/17 00:21:26;;;;;;;4.13;1.83;;;16.60;99.90;;;;;;7394038;19;20654;-72
2022/10/17 00:23:53;;;;;;;5.40;1.92;;;16.50;99.90;;;;;;7395572;19;20234;-71
2022/10/17 00:26:19;;;;;;;2.40;1.70;;;16.60;99.90;;;;;;7392789;19;20142;-73
2022/10/17 00:28:47;;;;;;;1.98;1.52;;;16.50;99.90;;;;;;7392242;19;20130;-71
2022/10/17 00:31:12;;;;;;;2.42;1.95;;;16.40;99.90;;;;;;7393810;19;20146;-74
2022/10/17 00:33:38;;;;;;;4.88;2.72;;;16.40;99.90;;;;;;7389846;19;20494;-72
2022/10/17 00:36:12;;;;;;;5.18;1.70;;;16.30;99.90;;;;;;7392262;19;20213;-72
2022/10/17 00:38:39;;;;;;;4.07;1.88;;;16.60;99.90;;;;;;7390440;19;20647;-72
2022/10/17 00:41:06;;;;;;;4.20;2.00;;;16.70;99.90;;;;;;7392586;19;20142;-72
2022/10/17 00:43:48;;;;;;;3.05;1.55;;;16.80;99.90;;;;;;7393682;19;20134;-72
2022/10/17 00:46:14;;;;;;;3.03;1.75;;;16.80;99.90;;;;;;7393764;19;20504;-72
2022/10/17 00:48:41;;;;;;;2.83;1.63;;;16.90;99.90;;;;;;7392664;19;20135;-72
2022/10/17 00:51:08;;;;;;;1.75;1.60;;;16.90;99.90;;;;;;7389475;19;20135;-74
2022/10/17 00:53:38;;;;;;;2.65;1.52;;;16.90;99.90;;;;;;7390669;19;20223;-74
2022/10/17 00:56:04;;;;;;;6.07;1.77;;;16.90;99.90;;;;;;7392267;19;20144;-72
2022/10/17 00:58:30;;;;;;;3.85;1.80;;;16.80;99.90;;;;;;7392435;19;20150;-72
2022/10/17 01:00:56;;;;;;;3.88;1.50;;;16.80;99.90;;;;;;7391287;19;20150;-72
2022/10/17 01:03:22;;;;;;;1.50;1.30;;;16.80;99.90;;;;;;7388867;19;20175;-72
2022/10/17 01:05:48;;;;;;;8.02;1.52;;;16.60;99.90;;;;;;7390194;19;20155;-73
2022/10/17 01:08:14;;;;;;;3.03;1.52;;;16.60;99.90;;;;;;7389083;19;20698;-73
2022/10/17 01:10:53;;;;;;;4.85;1.92;;;16.60;99.90;;;;;;7393923;19;20139;-71
2022/10/17 01:13:32;;;;;;;4.88;1.80;;;16.70;99.90;;;;;;7391475;19;20135;-72
2022/10/17 01:16:14;;;;;;;2.80;1.58;;;16.70;99.90;;;;;;7392331;19;20130;-72
2022/10/17 01:19:28;;;;;;;1.70;1.60;;;16.70;99.90;;;;;;7390332;19;20483;-71
2022/10/17 01:22:18;;;;;;;5.05;2.22;;;16.80;99.90;;;;;;7390231;19;20205;-72
2022/10/17 01:25:02;;;;;;;6.10;2.03;;;16.80;99.90;;;;;;7393654;19;20161;-72
2022/10/17 01:27:47;;;;;;;3.25;1.77;;;16.70;99.90;;;;;;7392502;19;20152;-73
2022/10/17 01:30:27;;;;;;;8.07;1.60;;;16.70;99.90;;;;;;7393672;19;20541;-72
2022/10/17 01:33:16;;;;;;;2.03;1.50;;;16.70;99.90;;;;;;7394735;19;20135;-73
2022/10/17 01:35:55;;;;;;;2.80;1.70;;;16.60;99.90;;;;;;7388298;19;20997;-74
2022/10/17 01:38:31;;;;;;;6.18;2.08;;;16.60;99.90;;;;;;7387037;19;20147;-72
2022/10/17 01:41:12;;;;;;;5.63;2.00;;;16.40;99.90;;;;;;7389715;19;20126;-73
2022/10/17 01:43:50;;;;;;;6.63;1.63;;;16.40;99.90;;;;;;7391812;19;20159;-72
2022/10/17 01:46:29;;;;;;;3.58;2.00;;;16.50;99.90;;;;;;7388160;19;20620;-71
2022/10/17 01:48:58;;;;;;;2.03;1.50;;;16.50;99.90;;;;;;7388429;19;20134;-72
2022/10/17 01:51:31;;;;;;;2.90;1.30;;;16.60;99.90;;;;;;7388843;19;20150;-74
2022/10/17 01:54:12;;;;;;;2.17;1.77;;;16.30;99.90;;;;;;7389533;19;20539;-73
2022/10/17 01:56:40;;;;;;;2.95;1.90;;;16.40;99.90;;;;;;7391341;19;20138;-73
2022/10/17 01:59:13;;;;;;;1.92;1.40;;;16.30;99.90;;;;;;7389536;19;20230;-71
2022/10/17 02:01:41;;;;;;;3.58;1.38;;;16.30;99.90;;;;;;7388515;19;20230;-72
2022/10/17 02:04:08;;;;;;;2.55;1.40;;;16.30;99.90;;;;;;7388069;19;20707;-72
2022/10/17 02:06:35;;;;;;;4.25;1.40;;;16.30;99.90;;;;;;7388944;19;20562;-71
2022/10/17 02:09:14;;;;;;;3.03;1.60;;;16.10;99.90;;;;;;7388909;19;20155;-72
2022/10/17 02:11:40;;;;;;;3.08;1.50;;;16.20;99.90;;;;;;7389528;19;20141;-73
2022/10/17 02:14:53;;;;;;;3.75;1.50;;;16.20;99.90;;;;;;7389968;19;20138;-73
2022/10/17 02:17:43;;;;;;;3.67;1.50;;;16.20;99.90;;;;;;7383417;19;20138;-73
2022/10/17 02:20:12;;;;;;;1.90;1.52;;;16.30;99.90;;;;;;7388276;19;20158;-73
2022/10/17 02:22:54;;;;;;;2.92;1.50;;;16.40;99.90;;;;;;7388178;19;20141;-73
2022/10/17 02:25:29;;;;;;;2.17;1.48;;;16.30;99.90;;;;;;7388832;19;20175;-74
2022/10/17 02:28:03;;;;;;;2.40;1.20;;;16.30;99.90;;;;;;7388551;19;20145;-72
2022/10/17 02:30:42;;;;;;;3.33;1.45;;;16.30;99.90;;;;;;7387426;19;20238;-72
2022/10/17 02:33:21;;;;;;;7.72;2.97;;;16.60;99.90;;;;;;7385154;19;20158;-73
2022/10/17 02:35:53;;;;;;;10.10;1.90;;;16.50;99.90;;;;;;7388080;19;20146;-73
2022/10/17 02:38:20;;;;;;;3.88;1.60;;;16.30;99.90;;;;;;7387758;19;20173;-73
2022/10/17 02:40:49;;;;;;;4.60;1.60;;;16.30;99.90;;;;;;7389276;19;20145;-72
2022/10/17 02:43:14;;;;;;;2.67;1.48;;;16.30;99.90;;;;;;7388698;19;20998;-72
2022/10/17 02:45:41;;;;;;;3.50;1.55;;;16.30;99.90;;;;;;7387963;19;20142;-73
2022/10/17 02:48:29;;;;;;;5.55;1.58;;;16.30;99.90;;;;;;7379018;19;20583;-73
2022/10/17 02:51:11;;;;;;;2.28;1.63;;;16.30;99.90;;;;;;7387705;19;20621;-72
2022/10/17 02:53:47;;;;;;;3.55;1.60;;;15.80;99.90;;;;;;7387599;19;20156;-72
2022/10/17 02:56:17;;;;;;;4.15;1.60;;;15.70;99.90;;;;;;7386259;19;20145;-73
2022/10/17 02:58:51;;;;;;;1.35;1.25;;;15.50;99.90;;;;;;7390285;19;20646;-72
2022/10/17 03:01:17;;;;;;;3.53;1.30;;;15.60;99.90;;;;;;7387828;19;20138;-73
2022/10/17 03:03:43;;;;;;;1.85;1.63;;;15.80;99.90;;;;;;7384720;19;20189;-73
2022/10/17 03:06:09;;;;;;;2.63;1.65;;;15.90;99.90;;;;;;7388074;19;20134;-72
2022/10/17 03:08:35;;;;;;;4.60;1.50;;;16.00;99.90;;;;;;7386905;19;20158;-73
2022/10/17 03:11:01;;;;;;;2.00;1.65;;;16.00;99.90;;;;;;7387062;19;20608;-72
2022/10/17 03:13:28;;;;;;;2.10;1.60;;;16.10;99.90;;;;;;7385680;19;20146;-73
2022/10/17 03:15:55;;;;;;;1.48;1.35;;;16.10;99.90;;;;;;7387564;19;20596;-72
2022/10/17 03:18:21;;;;;;;3.90;1.77;;;16.30;99.90;;;;;;7387361;19;20142;-73
2022/10/17 03:20:47;;;;;;;1.40;1.30;;;16.30;99.90;;;;;;7385102;19;20154;-72
2022/10/17 03:23:13;;;;;;;1.70;1.60;;;16.00;99.90;;;;;;7387642;19;20179;-73
2022/10/17 03:25:39;;;;;;;2.92;1.42;;;16.00;99.90;;;;;;7386099;19;20142;-71
2022/10/17 03:28:05;;;;;;;1.67;1.35;;;15.90;99.90;;;;;;7383967;19;20604;-74
2022/10/17 03:30:31;;;;;;;1.65;1.40;;;15.80;99.90;;;;;;7396117;19;20130;-73
2022/10/17 03:32:58;;;;;;;1.77;1.20;;;15.90;99.90;;;;;;7392443;19;20134;-73
2022/10/17 03:35:25;;;;;;;2.42;1.98;;;15.90;99.90;;;;;;7394706;19;20138;-72
2022/10/17 03:37:51;;;;;;;3.72;1.65;;;16.10;99.90;;;;;;7393365;19;20135;-72
2022/10/17 03:40:17;;;;;;;2.15;1.77;;;16.20;99.90;;;;;;7393396;19;20141;-72
2022/10/17 03:42:43;;;;;;;2.95;1.70;;;16.20;99.90;;;;;;7394290;19;20142;-72
2022/10/17 03:45:09;;;;;;;5.53;1.75;;;16.30;99.90;;;;;;7392977;19;20138;-73
2022/10/17 03:47:34;;;;;;;2.75;1.40;;;16.20;99.90;;;;;;7393058;19;20134;-72
2022/10/17 03:50:00;;;;;;;1.40;1.27;;;15.70;99.90;;;;;;7393526;19;20246;-71
2022/10/17 03:52:26;;;;;;;2.17;1.90;;;15.30;99.90;;;;;;7391542;19;20139;-72
2022/10/17 03:54:52;;;;;;;4.50;1.48;;;15.60;99.90;;;;;;7395895;19;20480;-72
2022/10/17 03:57:18;;;;;;;1.80;1.70;;;15.50;99.90;;;;;;7394011;19;20151;-73
2022/10/17 03:59:44;;;;;;;3.90;1.80;;;15.30;99.90;;;;;;7393420;19;20147;-72
2022/10/17 04:02:09;;;;;;;3.47;2.25;;;15.60;99.90;;;;;;7391977;19;20159;-73
2022/10/17 04:04:35;;;;;;;2.50;1.85;;;15.70;99.90;;;;;;7381981;19;20178;-72
2022/10/17 04:07:01;;;;;;;2.80;1.90;;;15.80;99.90;;;;;;7394487;19;20504;-72
2022/10/17 04:09:27;;;;;;;2.08;1.50;;;15.80;99.90;;;;;;7392331;19;20553;-71
2022/10/17 04:11:52;;;;;;;3.90;1.58;;;15.80;99.90;;;;;;7391746;19;20491;-72
2022/10/17 04:14:18;;;;;;;2.70;1.15;;;15.80;99.90;;;;;;7391696;19;20552;-72
2022/10/17 04:16:44;;;;;;;2.33;1.65;;;15.90;99.90;;;;;;7392685;19;20163;-72
2022/10/17 04:19:12;;;;;;;4.28;1.50;;;15.90;99.90;;;;;;7391290;19;20151;-72
2022/10/17 04:21:39;;;;;;;1.98;1.63;;;15.90;99.90;;;;;;7394818;19;20126;-72
2022/10/17 04:24:05;;;;;;;1.40;1.30;;;16.00;99.90;;;;;;7391926;19;20154;-72
2022/10/17 04:26:31;;;;;;;3.55;1.60;;;15.90;99.90;;;;;;7395723;19;20589;-73
2022/10/17 04:28:56;;;;;;;2.95;1.98;;;15.70;99.90;;;;;;7390843;19;20147;-72
2022/10/17 04:31:22;;;;;;;2.03;1.40;;;15.30;99.90;;;;;;7390567;19;20178;-72
2022/10/17 04:33:49;;;;;;;3.88;1.50;;;15.40;99.90;;;;;;7390909;19;20139;-72
2022/10/17 04:36:19;;;;;;;2.35;1.50;;;15.70;99.90;;;;;;7391141;19;20139;-71
2022/10/17 04:38:44;;;;;;;3.30;1.50;;;15.70;99.90;;;;;;7389281;19;20594;-71
2022/10/17 04:41:14;;;;;;;3.25;1.38;;;15.80;99.90;;;;;;7392961;19;20817;-74
2022/10/17 04:43:40;;;;;;;3.60;1.70;;;15.80;99.90;;;;;;7393447;19;20156;-72
2022/10/17 04:46:12;;;;;;;4.72;1.95;;;15.90;99.90;;;;;;7391862;19;20245;-72
2022/10/17 04:48:40;;;;;;;3.17;2.15;;;16.00;99.90;;;;;;7391357;19;20245;-73
2022/10/17 04:51:09;;;;;;;3.72;1.90;;;16.00;99.90;;;;;;7391799;19;20131;-72
2022/10/17 04:53:36;;;;;;;3.80;1.70;;;15.80;99.90;;;;;;7388292;19;20139;-72
2022/10/17 04:56:28;;;;;;;3.42;2.08;;;15.50;99.90;;;;;;7393356;19;20130;-72
2022/10/17 04:58:54;;;;;;;2.13;1.60;;;15.60;99.90;;;;;;7389990;19;20147;-73
2022/10/17 05:01:22;;;;;;;2.50;2.03;;;15.70;99.90;;;;;;7393590;19;20168;-73
2022/10/17 05:03:47;;;;;;;4.45;1.85;;;15.60;99.90;;;;;;7390214;19;20249;-72
2022/10/17 05:06:19;;;;;;;2.97;1.58;;;15.60;99.90;;;;;;7392773;19;20139;-73
2022/10/17 05:08:46;;;;;;;2.92;1.95;;;15.70;99.90;;;;;;7386175;19;20620;-74
2022/10/17 05:11:15;;;;;;;7.72;1.92;;;15.70;99.90;;;;;;7388486;19;20638;-72
2022/10/17 05:13:41;;;;;;;2.38;1.77;;;15.70;99.90;;;;;;7387803;19;20182;-73
2022/10/17 05:16:07;;;;;;;2.65;2.03;;;15.70;99.90;;;;;;7389625;19;20146;-73
2022/10/17 05:18:33;;;;;;;2.65;1.88;;;15.50;99.90;;;;;;7387208;19;20568;-72
2022/10/17 05:20:58;;;;;;;5.05;1.98;;;15.30;99.90;;;;;;7390142;19;20146;-72
2022/10/17 05:23:24;;;;;;;3.83;1.98;;;15.50;99.90;;;;;;7390738;19;20142;-72
2022/10/17 05:25:54;;;;;;;3.92;1.95;;;15.50;99.90;;;;;;7388989;19;20150;-72
2022/10/17 05:28:20;;;;;;;3.63;1.90;;;15.50;99.90;;;;;;7390528;19;20150;-72
2022/10/17 05:30:46;;;;;;;2.53;1.92;;;15.50;99.90;;;;;;7389370;19;20153;-72
2022/10/17 05:33:12;;;;;;;3.97;2.63;;;15.60;99.90;;;;;;7387283;19;20143;-72
2022/10/17 05:35:37;;;;;;;7.13;2.63;;;15.80;99.90;;;;;;7389366;19;20139;-73
2022/10/17 05:38:03;;;;;;;6.57;2.83;;;15.80;99.90;;;;;;7387734;19;20515;-75
2022/10/17 05:40:29;;;;;;;6.88;2.83;;;15.90;99.90;;;;;;7389060;19;20628;-71
2022/10/17 05:42:55;;;;;;;4.68;2.80;;;15.90;99.90;;;;;;7388452;19;20153;-72
2022/10/17 05:45:20;;;;;;;10.23;2.45;;;15.80;99.90;;;;;;7387685;19;20170;-72
2022/10/17 05:47:46;;;;;;;5.68;2.40;;;15.80;99.90;;;;;;7387949;19;20691;-72
2022/10/17 05:50:12;;;;;;;4.88;2.17;;;15.30;99.90;;;;;;7387155;19;20158;-73
2022/10/17 05:52:38;;;;;;;3.28;2.30;;;15.40;99.90;;;;;;7386602;19;20532;-72
2022/10/17 05:55:05;;;;;;;3.90;2.42;;;15.50;99.90;;;;;;7383837;19;20151;-72
2022/10/17 05:57:30;;;;;;;8.43;2.40;;;15.30;99.90;;;;;;7387920;19;20143;-72
2022/10/17 05:59:56;;;;;;;4.68;2.08;;;15.10;99.90;;;;;;7387692;19;20253;-72
2022/10/17 06:02:22;;;;;;;3.35;1.90;;;15.00;99.90;;;;;;7384452;19;20707;-73
2022/10/17 06:04:48;;;;;;;3.33;1.95;;;15.10;99.90;;;;;;7387218;19;20150;-74
2022/10/17 06:07:15;;;;;;;3.20;2.25;;;15.20;99.90;;;;;;7385445;19;20154;-75
2022/10/17 06:09:41;;;;;;;4.88;2.42;;;15.00;99.90;;;;;;7388076;19;20158;-74
2022/10/17 06:12:07;;;;;;;3.25;2.13;;;14.80;99.90;;;;;;7388582;19;20130;-74
2022/10/17 06:14:33;;;;;;;3.95;2.10;;;14.60;99.90;;;;;;7386344;19;20151;-74
2022/10/17 06:16:59;;;;;;;4.32;2.25;;;14.50;99.90;;;;;;7388194;19;20139;-74
2022/10/17 06:19:25;;;;;;;5.47;2.50;;;14.70;99.90;;;;;;7386674;19;20624;-73
2022/10/17 06:21:51;;;;;;;4.15;2.72;;;15.20;99.90;;;;;;7388343;19;20138;-72
2022/10/17 06:24:17;;;;;;;5.15;3.58;;;15.40;99.90;;;;;;7389679;19;20139;-74
2022/10/17 06:26:43;;;;;;;5.63;4.53;;;15.60;99.90;;;;;;7388042;19;20650;-74
2022/10/17 06:29:09;;;;;;;7.25;3.13;;;15.80;99.90;;;;;;7387051;19;20138;-73
2022/10/17 06:31:35;;;;;;;5.90;3.35;;;15.80;99.90;;;;;;7387595;19;20226;-73
2022/10/17 06:34:00;;;;;;;5.97;2.88;;;16.00;99.90;;;;;;7381100;19;20263;-73
2022/10/17 06:36:28;;;;;;;5.22;2.90;;;15.80;99.90;;;;;;7388483;19;20447;-74
2022/10/17 06:38:57;;;;;;;5.30;2.80;;;15.80;99.90;;;;;;7390229;19;20138;-74
2022/10/17 06:41:24;;;;;;;5.95;3.28;;;15.80;99.90;;;;;;7389810;19;20359;-74
2022/10/17 06:43:52;;;;;;;9.95;4.05;;;15.70;99.90;;;;;;7391471;19;20184;-73
2022/10/17 06:46:21;;;;;;;9.38;4.63;;;15.30;99.90;;;;;;7391248;19;20138;-73
2022/10/17 06:48:48;;;;;;;9.38;4.30;;;15.40;99.90;;;;;;7389717;19;20150;-73
2022/10/17 06:51:14;;;;;;;10.95;4.53;;;15.40;99.90;;;;;;7389282;19;20461;-74
2022/10/17 06:53:40;;;;;;;13.63;5.82;;;15.40;99.90;;;;;;7388231;19;20126;-74
2022/10/17 06:56:07;;;;;;;10.82;6.28;;;15.60;99.90;;;;;;7391097;19;20242;-74
2022/10/17 06:58:35;;;;;;;11.43;4.40;;;15.80;99.90;;;;;;7388841;19;20141;-74
2022/10/17 07:01:03;;;;;;;9.25;3.95;;;15.70;99.90;;;;;;7389122;19;20249;-74
2022/10/17 07:03:29;;;;;;;10.23;5.38;;;15.80;99.90;;;;;;7388267;19;20169;-73
2022/10/17 07:05:55;;;;;;;13.98;5.75;;;15.90;99.90;;;;;;7391081;19;20159;-72
2022/10/17 07:08:21;;;;;;;7.05;4.75;;;15.90;99.90;;;;;;7387684;19;20159;-74
2022/10/17 07:10:47;;;;;;;9.07;3.97;;;15.90;99.90;;;;;;7387594;19;20570;-74
2022/10/17 07:13:14;;;;;;;6.68;3.67;;;15.80;99.90;;;;;;7389506;19;20130;-74
2022/10/17 07:15:40;;;;;;;4.07;2.90;;;15.70;99.90;;;;;;7390089;19;20612;-74
2022/10/17 07:18:06;;;;;;;6.25;3.22;;;15.60;99.90;;;;;;7388514;19;20162;-73
2022/10/17 07:20:32;;;;;;;5.85;2.63;;;15.70;99.90;;;;;;7385430;19;20154;-73
2022/10/17 07:22:58;;;;;;;5.07;2.45;;;15.80;99.90;;;;;;7385596;19;20157;-73
2022/10/17 07:25:24;;;;;;;5.25;2.15;;;15.80;99.90;;;;;;7384925;19;20139;-73
2022/10/17 07:27:51;;;;;;;10.85;2.78;;;15.80;99.90;;;;;;7388274;19;20158;-74
2022/10/17 07:30:18;;;;;;;5.03;3.38;;;15.80;99.90;;;;;;7390466;19;20513;-73
2022/10/17 07:32:45;;;;;;;7.78;3.13;;;15.80;99.90;;;;;;7388464;19;20154;-73
2022/10/17 07:35:12;;;;;;;5.45;2.90;;;16.10;99.90;;;;;;7387401;19;20608;-72
2022/10/17 07:37:38;;;;;;;4.35;3.00;;;16.00;99.90;;;;;;7387122;19;20544;-75
2022/10/17 07:40:05;;;;;;;9.48;4.03;;;16.20;99.90;;;;;;7386531;19;20159;-73
2022/10/17 07:42:32;;;;;;;8.93;5.40;;;16.20;99.90;;;;;;7390756;19;20574;-73
2022/10/17 07:44:57;;;;;;;7.55;3.78;;;16.10;99.90;;;;;;7384738;19;20139;-73
2022/10/17 07:47:23;;;;;;;5.47;3.70;;;16.20;99.90;;;;;;7386003;19;20706;-72
2022/10/17 07:49:49;;;;;;;11.75;4.47;;;16.40;99.90;;;;;;7390761;19;20232;-71
2022/10/17 07:52:15;;;;;;;10.65;3.22;;;16.50;99.90;;;;;;7383844;19;20139;-74
2022/10/17 07:54:41;;;;;;;7.78;3.17;;;16.60;99.90;;;;;;7385547;19;20157;-71
2022/10/17 07:57:08;;;;;;;7.70;3.30;;;16.60;99.90;;;;;;7385441;19;20600;-73
2022/10/17 07:59:35;;;;;;;5.35;2.90;;;16.50;99.90;;;;;;7383686;19;20516;-73
2022/10/17 08:02:01;;;;;;;8.52;4.10;;;16.40;99.90;;;;;;7387051;19;20171;-72
2022/10/17 08:04:27;;;;;;;7.13;3.70;;;16.50;99.90;;;;;;7383699;19;20588;-72
2022/10/17 08:06:53;;;;;;;7.55;3.50;;;16.50;99.90;;;;;;7385160;19;20130;-73
2022/10/17 08:09:20;;;;;;;11.52;5.30;;;16.60;99.90;;;;;;7382807;19;20209;-73
2022/10/17 08:11:46;;;;;;;13.43;7.00;;;16.80;99.90;;;;;;7386506;19;20142;-73
2022/10/17 08:14:12;;;;;;;7.85;4.30;;;16.90;99.90;;;;;;7387536;19;20155;-72
2022/10/17 08:16:39;;;;;;;9.40;3.85;;;16.90;99.90;;;;;;7394319;19;20798;-75
2022/10/17 08:19:07;;;;;;;8.30;3.45;;;17.00;99.90;;;;;;7388971;19;20127;-73
2022/10/17 08:21:34;;;;;;;7.78;3.35;;;17.20;99.90;;;;;;7391639;19;20138;-74
2022/10/17 08:24:01;;;;;;;6.38;3.40;;;17.40;99.90;;;;;;7389726;19;20488;-73
2022/10/17 08:26:27;;;;;;;6.00;3.15;;;17.40;99.90;;;;;;7393026;19;20143;-74
2022/10/17 08:28:53;;;;;;;9.57;3.75;;;17.40;99.90;;;;;;7390134;19;20135;-73
2022/10/17 08:31:20;;;;;;;3.67;2.88;;;17.40;99.90;;;;;;7390538;19;20214;-73
2022/10/17 08:33:47;;;;;;;4.45;2.78;;;17.60;99.90;;;;;;7389383;19;20670;-72
2022/10/17 08:36:15;;;;;;;4.57;2.47;;;17.60;99.90;;;;;;7391967;19;20163;-73
2022/10/17 08:38:42;;;;;;;3.75;2.45;;;17.60;99.90;;;;;;7390360;19;20154;-73
2022/10/17 08:41:29;;;;;;;6.38;2.70;;;17.50;99.90;;;;;;7391391;19;20146;-71
2022/10/17 08:44:13;;;;;;;5.85;2.58;;;17.50;99.90;;;;;;7396826;19;20146;-73
2022/10/17 08:46:42;;;;;;;4.47;2.65;;;17.50;99.90;;;;;;7391076;19;20157;-71
2022/10/17 08:49:24;;;;;;;4.90;2.45;;;17.60;99.90;;;;;;7391240;19;20642;-74
2022/10/17 08:52:01;;;;;;;4.57;2.67;;;17.80;99.90;;;;;;7388039;19;20153;-73
2022/10/17 08:54:46;;;;;;;3.63;2.63;;;17.80;99.90;;;;;;7391883;19;20138;-74
2022/10/17 08:57:14;;;;;;;6.97;2.75;;;17.90;99.90;;;;;;7389275;19;20184;-74
2022/10/17 08:59:42;;;;;;;11.23;7.97;;;17.90;99.90;;;;;;7388840;19;20151;-73
2022/10/17 09:02:26;;;;;;;3.65;2.38;;;17.90;99.90;;;;;;7389764;19;20154;-73
2022/10/17 09:05:13;;;;;;;3.65;2.13;;;18.00;99.90;;;;;;7388394;19;20139;-72
2022/10/17 09:07:52;;;;;;;4.63;2.47;;;18.10;99.90;;;;;;7386037;19;20258;-74
2022/10/17 09:10:54;;;;;;;2.88;1.92;;;18.00;99.90;;;;;;7389402;19;20142;-74
2022/10/17 09:13:45;;;;;;;4.55;1.88;;;18.30;99.90;;;;;;7387902;19;20213;-73
2022/10/17 09:16:29;;;;;;;3.58;2.83;;;18.40;99.90;;;;;;7392195;19;20168;-74
2022/10/17 09:19:10;;;;;;;3.10;2.13;;;18.50;99.90;;;;;;7391651;19;20131;-74
2022/10/17 09:21:59;;;;;;;3.17;2.10;;;18.60;99.90;;;;;;7387462;19;20131;-73
2022/10/17 09:24:48;;;;;;;3.38;2.10;;;18.70;99.90;;;;;;7388959;19;20658;-74
2022/10/17 09:27:35;;;;;;;2.33;1.85;;;18.70;99.90;;;;;;7390117;19;20144;-73
2022/10/17 09:30:36;;;;;;;6.85;2.72;;;18.80;99.90;;;;;;7389331;19;20150;-74
2022/10/17 09:33:13;;;;;;;3.80;2.78;;;18.80;99.90;;;;;;7387571;19;20149;-72
2022/10/17 09:35:41;;;;;;;5.95;2.60;;;19.00;99.90;;;;;;7393698;19;20134;-72
2022/10/17 09:38:14;;;;;;;4.95;2.20;;;19.00;99.90;;;;;;7390328;19;20138;-73
2022/10/17 09:40:40;;;;;;;5.07;2.53;;;19.20;99.90;;;;;;7389996;19;20746;-73
2022/10/17 09:43:09;;;;;;;2.35;2.00;;;19.20;99.90;;;;;;7392893;19;20146;-73
2022/10/17 09:45:45;;;;;;;6.50;2.08;;;19.30;99.90;;;;;;7391764;19;20150;-73
2022/10/17 09:48:25;;;;;;;6.70;2.10;;;19.30;99.90;;;;;;7388217;19;20624;-73
2022/10/17 09:50:51;;;;;;;7.72;2.75;;;19.40;99.90;;;;;;7388636;19;20138;-75
2022/10/17 09:53:21;;;;;;;2.67;2.00;;;19.40;99.90;;;;;;7386065;19;20138;-72
2022/10/17 09:55:55;;;;;;;3.00;2.00;;;19.50;99.90;;;;;;7388976;19;20615;-74
2022/10/17 09:58:21;;;;;;;12.07;2.08;;;19.50;99.90;;;;;;7387123;19;20141;-74
2022/10/17 10:00:48;;;;;;;5.07;2.78;;;19.60;99.90;;;;;;7387225;19;20139;-76
2022/10/17 10:03:24;;;;;;;4.65;2.20;;;19.70;99.90;;;;;;7388438;19;20181;-73
2022/10/17 10:06:26;;;;;;;5.85;2.40;;;19.80;99.90;;;;;;7390120;19;20482;-72
2022/10/17 10:09:03;;;;;;;7.70;3.15;;;19.90;99.90;;;;;;7380870;19;20178;-72
2022/10/17 10:11:54;;;;;;;4.47;2.60;;;20.00;99.90;;;;;;7384965;19;20161;-74
2022/10/17 10:14:34;;;;;;;7.80;4.18;;;20.10;99.90;;;;;;7388412;19;20158;-74
2022/10/17 10:17:03;;;;;;;11.45;5.07;;;20.10;99.90;;;;;;7386420;19;20135;-74
2022/10/17 10:19:33;;;;;;;7.45;2.83;;;20.30;99.90;;;;;;7387465;19;20143;-73
2022/10/17 10:22:04;;;;;;;8.82;3.03;;;20.40;99.90;;;;;;7388553;19;20669;-73
2022/10/17 10:24:31;;;;;;;4.20;2.00;;;20.40;99.90;;;;;;7391246;19;20154;-72
2022/10/17 10:27:00;;;;;;;8.65;5.18;;;20.50;99.90;;;;;;7389149;19;20160;-74
2022/10/17 10:29:39;;;;;;;7.78;2.55;;;20.50;99.90;;;;;;7387628;19;20142;-73
2022/10/17 10:32:29;;;;;;;6.20;3.00;;;20.70;99.90;;;;;;7386765;19;20142;-73
2022/10/17 10:35:07;;;;;;;6.07;3.15;;;20.70;99.90;;;;;;7388010;19;20769;-72
2022/10/17 10:37:42;;;;;;;26.35;14.63;;;20.90;99.90;;;;;;7385748;19;20138;-74
2022/10/17 10:40:21;;;;;;;11.68;5.82;;;20.90;99.90;;;;;;7385523;19;20142;-74
2022/10/17 10:42:53;;;;;;;15.07;7.38;;;20.80;99.90;;;;;;7386006;19;20584;-73
2022/10/17 10:45:50;;;;;;;4.43;2.97;;;20.80;99.90;;;;;;7388548;19;20159;-74
2022/10/17 10:48:21;;;;;;;6.13;2.92;;;20.90;99.90;;;;;;7386043;19;20148;-73
2022/10/17 10:50:53;;;;;;;7.75;4.55;;;21.00;99.90;;;;;;7383673;19;20201;-72
2022/10/17 10:53:41;;;;;;;11.32;6.90;;;21.10;99.90;;;;;;7386653;19;20134;-72
2022/10/17 10:56:27;;;;;;;3.03;2.08;;;21.20;99.90;;;;;;7387838;19;20134;-73
2022/10/17 10:59:08;;;;;;;1.73;1.30;;;21.30;99.90;;;;;;7385555;19;20134;-73
2022/10/17 11:01:55;;;;;;;1.60;1.15;;;21.50;99.90;;;;;;7387492;19;20155;-73
2022/10/17 11:04:34;;;;;;;6.68;3.92;;;21.60;99.90;;;;;;7386710;19;20155;-74
2022/10/17 11:07:07;;;;;;;2.08;1.23;;;21.80;99.90;;;;;;7388567;19;20142;-73
2022/10/17 11:09:52;;;;;;;2.00;1.17;;;21.90;99.90;;;;;;7387990;19;20588;-74
2022/10/17 11:12:20;;;;;;;12.15;9.23;;;21.90;99.90;;;;;;7388013;19;20138;-73
2022/10/17 11:15:08;;;;;;;6.22;4.65;;;22.00;99.90;;;;;;7387808;19;20146;-73
2022/10/17 11:17:55;;;;;;;14.25;9.77;;;22.10;99.90;;;;;;7387788;19;20159;-73
2022/10/17 11:20:57;;;;;;;2.60;1.38;;;22.20;99.90;;;;;;7387960;19;20480;-74
2022/10/17 11:23:34;;;;;;;5.65;1.80;;;22.30;99.90;;;;;;7388331;19;20522;-72
2022/10/17 11:26:15;;;;;;;2.85;1.58;;;22.50;99.90;;;;;;7387494;19;20138;-74
2022/10/17 11:28:40;;;;;;;6.57;1.95;;;22.60;99.90;;;;;;7387053;19;20146;-73
2022/10/17 11:31:11;;;;;;;2.20;1.67;;;22.70;99.90;;;;;;7385442;19;20709;-74
2022/10/17 11:33:45;;;;;;;2.88;1.30;;;22.80;99.90;;;;;;7383921;19;20202;-73
2022/10/17 11:36:12;;;;;;;2.67;1.17;;;23.00;99.90;;;;;;7386369;19;20626;-73
2022/10/17 11:39:04;;;;;;;2.95;1.65;;;23.10;99.90;;;;;;7385352;19;20158;-73
2022/10/17 11:41:48;;;;;;;3.17;2.00;;;23.30;99.90;;;;;;7374944;19;20154;-73
2022/10/17 11:44:23;;;;;;;3.28;1.05;;;23.50;99.90;;;;;;7386033;19;20491;-75
2022/10/17 11:47:35;;;;;;;2.05;1.30;;;23.60;99.90;;;;;;7386751;19;20612;-73
2022/10/17 11:50:24;;;;;;;2.50;1.48;;;23.80;99.90;;;;;;7391576;19;20158;-73
2022/10/17 11:53:07;;;;;;;1.75;1.42;;;23.90;99.90;;;;;;7393180;19;20174;-73
2022/10/17 11:55:34;;;;;;;3.83;1.67;;;24.10;99.90;;;;;;7394289;19;20158;-74
2022/10/17 11:58:06;;;;;;;2.38;1.30;;;24.10;99.90;;;;;;7394521;19;20139;-75
2022/10/17 12:01:09;;;;;;;3.70;1.80;;;24.20;99.90;;;;;;7388178;19;20239;-73
2022/10/17 12:03:54;;;;;;;4.05;2.40;;;24.30;99.90;;;;;;7392038;19;20484;-74
2022/10/17 12:06:23;;;;;;;2.72;1.20;;;24.30;99.90;;;;;;7392868;19;20146;-72
2022/10/17 12:09:10;;;;;;;2.30;1.13;;;24.40;99.90;;;;;;7391116;19;20161;-74
2022/10/17 12:11:44;;;;;;;4.00;1.55;;;24.50;99.90;;;;;;7389775;19;20138;-71
2022/10/17 12:14:42;;;;;;;2.63;1.55;;;24.60;99.90;;;;;;7390446;19;20131;-73
2022/10/17 12:17:37;;;;;;;2.53;1.35;;;24.70;99.90;;;;;;7392247;19;20149;-72
2022/10/17 12:20:24;;;;;;;2.05;1.30;;;24.60;99.90;;;;;;7392293;19;20158;-73
2022/10/17 12:22:51;;;;;;;2.58;1.40;;;24.70;99.90;;;;;;7394086;19;20138;-73
2022/10/17 12:25:28;;;;;;;2.92;1.33;;;24.70;99.90;;;;;;7395744;19;20247;-73
2022/10/17 12:28:13;;;;;;;2.75;1.30;;;24.70;99.90;;;;;;7390476;19;20217;-72
2022/10/17 12:31:08;;;;;;;1.83;1.38;;;24.90;99.90;;;;;;7393974;19;20456;-71
2022/10/17 12:33:55;;;;;;;1.50;1.10;;;24.80;99.90;;;;;;7389342;19;20483;-72
2022/10/17 12:36:21;;;;;;;2.75;1.10;;;24.90;99.90;;;;;;7390175;19;20147;-74
2022/10/17 12:38:47;;;;;;;1.75;0.98;;;24.80;99.90;;;;;;7389026;19;20680;-72
2022/10/17 12:41:13;;;;;;;3.90;1.02;;;24.80;99.90;;;;;;7391662;19;20596;-71
2022/10/17 12:43:51;;;;;;;2.17;0.98;;;24.90;99.90;;;;;;7393161;19;20137;-73
2022/10/17 12:46:42;;;;;;;3.08;1.60;;;24.90;99.90;;;;;;7391083;19;20171;-71
2022/10/17 12:49:36;;;;;;;3.22;1.27;;;24.90;99.90;;;;;;7391152;19;20142;-74
2022/10/17 12:52:43;;;;;;;1.17;0.95;;;24.90;99.90;;;;;;7389795;19;20881;-73
2022/10/17 12:55:13;;;;;;;4.97;1.42;;;24.90;99.90;;;;;;7392756;19;20165;-72
2022/10/17 12:57:50;;;;;;;3.83;1.20;;;24.80;99.90;;;;;;7392106;19;20151;-73
2022/10/17 13:00:48;;;;;;;2.97;1.52;;;24.70;99.90;;;;;;7388099;19;20638;-73
2022/10/17 13:03:33;;;;;;;2.95;1.20;;;24.70;99.90;;;;;;7386427;19;20155;-73
2022/10/17 13:06:03;;;;;;;1.60;1.00;;;24.80;99.90;;;;;;7391537;19;20138;-74
2022/10/17 13:08:34;;;;;;;2.63;1.00;;;24.70;99.90;;;;;;7386386;19;20497;-72
2022/10/17 13:11:01;;;;;;;3.13;1.20;;;24.70;99.90;;;;;;7392150;19;20141;-73
2022/10/17 13:13:47;;;;;;;1.48;0.95;;;24.80;99.90;;;;;;7391335;19;20130;-73